San Antonio de Obligado, Argentina
Current Conditions -  °F | °C
As of 6:00 AM on Monday 22 Dec 2014 (Local Time) from SARE Reporting Station
Clear Clear  
Wind Chill: 66°   Ceiling: Unl
Heat Index: 66°   Visibility: 6mi
Dew Point: 57°   Wind: 3mph
Humidity: 73%   Direction: 180°S
Pressure: 29.97"   Gusts: NA
Location:  28.39°S, 59.29°W
Report Text: SARE 220900Z 18003KT CAVOK 19/14 Q1015
Loading
Personal Weather Stations






























Interactive Weather Map New forecast layout! Learn more

10-Day Weather Forecast

Advertisements
Track Severe Weather on mobile